createdAt,value
2022-09-29T00:02:11.470Z,2.30
2022-09-29T00:04:41.425Z,4.57
2022-09-29T00:07:11.847Z,4.60
2022-09-29T00:09:44.355Z,4.43
2022-09-29T00:12:15.128Z,1.73
2022-09-29T00:14:47.852Z,3.17
2022-09-29T00:17:18.481Z,2.60
2022-09-29T00:19:48.407Z,2.80
2022-09-29T00:22:18.962Z,3.23
2022-09-29T00:24:52.844Z,6.10
2022-09-29T00:27:23.615Z,8.13
2022-09-29T00:29:53.529Z,4.43
2022-09-29T00:32:24.277Z,3.90
2022-09-29T00:34:54.225Z,2.73
2022-09-29T00:37:24.579Z,2.13
2022-09-29T00:39:57.130Z,2.83
2022-09-29T00:42:28.313Z,2.60
2022-09-29T00:45:06.908Z,2.27
2022-09-29T00:47:40.638Z,2.83
2022-09-29T00:50:17.857Z,3.90
2022-09-29T00:52:52.401Z,5.43
2022-09-29T00:55:28.732Z,3.33
2022-09-29T00:58:03.726Z,2.73
2022-09-29T01:00:33.654Z,3.33
2022-09-29T01:03:06.761Z,4.37
2022-09-29T01:05:40.278Z,5.40
2022-09-29T01:08:16.609Z,3.30
2022-09-29T01:10:53.364Z,4.93
2022-09-29T01:13:25.007Z,5.00
2022-09-29T01:15:54.981Z,2.47
2022-09-29T01:18:25.975Z,4.13
2022-09-29T01:21:04.369Z,3.37
2022-09-29T01:24:11.686Z,2.50
2022-09-29T01:27:15.101Z,2.17
2022-09-29T01:30:17.604Z,3.10
2022-09-29T01:33:13.897Z,3.50
2022-09-29T01:35:53.085Z,3.13
2022-09-29T01:38:38.705Z,3.53
2022-09-29T01:41:14.704Z,3.20
2022-09-29T01:43:51.901Z,3.73
2022-09-29T01:46:26.506Z,4.70
2022-09-29T01:49:01.794Z,2.90
2022-09-29T01:51:38.281Z,2.30
2022-09-29T01:54:15.098Z,2.30
2022-09-29T01:56:49.429Z,3.60
2022-09-29T01:59:24.775Z,3.03
2022-09-29T02:02:01.039Z,3.50
2022-09-29T02:04:36.510Z,3.30
2022-09-29T02:07:14.395Z,3.67
2022-09-29T02:09:49.183Z,2.60
2022-09-29T02:12:26.293Z,3.77
2022-09-29T02:14:58.005Z,2.97
2022-09-29T02:17:33.427Z,4.00
2022-09-29T02:20:06.806Z,3.10
2022-09-29T02:22:39.450Z,3.27
2022-09-29T02:25:13.970Z,3.20
2022-09-29T02:27:45.360Z,4.13
2022-09-29T02:30:16.457Z,4.10
2022-09-29T02:32:47.076Z,3.30
2022-09-29T02:35:19.885Z,4.90
2022-09-29T02:37:59.436Z,5.07
2022-09-29T02:40:40.202Z,3.33
2022-09-29T02:43:23.238Z,3.00
2022-09-29T02:46:07.829Z,2.50
2022-09-29T02:48:53.350Z,2.57
2022-09-29T02:51:30.895Z,3.23
2022-09-29T02:54:12.999Z,3.27
2022-09-29T02:56:49.240Z,2.07
2022-09-29T02:59:25.114Z,3.37
2022-09-29T03:01:57.282Z,2.60
2022-09-29T03:04:29.053Z,3.47
2022-09-29T03:07:02.822Z,3.13
2022-09-29T03:09:33.472Z,3.70
2022-09-29T03:12:04.045Z,3.23
2022-09-29T03:14:33.959Z,3.40
2022-09-29T03:17:04.400Z,4.27
2022-09-29T03:19:34.566Z,4.43
2022-09-29T03:22:07.702Z,3.33
2022-09-29T03:24:37.640Z,3.07
2022-09-29T03:27:07.991Z,3.67
2022-09-29T03:29:38.022Z,4.37
2022-09-29T03:32:08.968Z,5.73
2022-09-29T03:34:39.139Z,5.30
2022-09-29T03:37:12.643Z,4.90
2022-09-29T03:39:42.535Z,4.00
2022-09-29T03:42:12.804Z,5.67
2022-09-29T03:44:42.705Z,7.20
2022-09-29T03:47:12.568Z,7.97
2022-09-29T03:49:42.469Z,6.80
2022-09-29T03:52:15.373Z,8.80
2022-09-29T03:54:45.306Z,8.37
2022-09-29T03:57:15.504Z,9.77
2022-09-29T03:59:45.865Z,8.23
2022-09-29T04:02:18.730Z,9.77
2022-09-29T04:04:48.853Z,8.73
2022-09-29T04:07:21.657Z,7.60
2022-09-29T04:09:51.512Z,7.33
2022-09-29T04:12:21.845Z,8.70
2022-09-29T04:14:51.709Z,12.13
2022-09-29T04:17:22.601Z,9.30
2022-09-29T04:19:52.501Z,10.80
2022-09-29T04:22:25.324Z,8.83
2022-09-29T04:24:55.201Z,10.23
2022-09-29T04:27:26.017Z,13.67
2022-09-29T04:29:55.886Z,8.53
2022-09-29T04:32:26.754Z,13.57
2022-09-29T04:34:56.673Z,14.67
2022-09-29T04:37:31.938Z,14.17
2022-09-29T04:40:03.440Z,12.13
2022-09-29T04:42:34.018Z,13.50
2022-09-29T04:45:03.952Z,11.37
2022-09-29T04:47:34.521Z,11.03
2022-09-29T04:50:04.417Z,11.97
2022-09-29T04:52:37.923Z,12.37
2022-09-29T04:55:11.327Z,12.17
2022-09-29T04:57:42.071Z,13.20
2022-09-29T05:00:13.648Z,12.83
2022-09-29T05:02:48.936Z,11.73
2022-09-29T05:05:19.800Z,11.73
2022-09-29T05:07:53.244Z,11.27
2022-09-29T05:10:23.200Z,12.87
2022-09-29T05:12:53.945Z,11.63
2022-09-29T05:15:26.128Z,15.27
2022-09-29T05:17:58.624Z,13.07
2022-09-29T05:20:34.335Z,11.83
2022-09-29T05:23:12.867Z,15.00
2022-09-29T05:25:43.994Z,12.30
2022-09-29T05:28:15.450Z,14.70
2022-09-29T05:30:45.408Z,17.40
2022-09-29T05:33:15.841Z,14.80
2022-09-29T05:35:45.771Z,26.47
2022-09-29T05:38:19.029Z,21.47
2022-09-29T05:40:49.357Z,31.50
2022-09-29T05:43:19.280Z,27.80
2022-09-29T05:45:49.350Z,14.90
2022-09-29T05:48:19.700Z,22.03
2022-09-29T05:50:49.588Z,15.50
2022-09-29T05:53:22.082Z,33.03
2022-09-29T05:55:52.126Z,24.43
2022-09-29T05:58:22.469Z,29.00
2022-09-29T06:00:52.650Z,17.13
2022-09-29T06:03:22.859Z,24.63
2022-09-29T06:05:52.703Z,24.90
2022-09-29T06:08:25.233Z,17.63
2022-09-29T06:10:55.093Z,21.27
2022-09-29T06:13:25.658Z,10.07
2022-09-29T06:15:55.530Z,10.30
2022-09-29T06:18:25.428Z,11.13
2022-09-29T06:20:55.360Z,12.80
2022-09-29T06:23:27.971Z,13.60
2022-09-29T06:26:02.093Z,13.83
2022-09-29T06:28:32.075Z,13.17
2022-09-29T06:31:03.546Z,13.03
2022-09-29T06:33:35.870Z,12.43
2022-09-29T06:36:22.812Z,14.40
2022-09-29T06:38:55.703Z,14.47
2022-09-29T06:41:26.998Z,13.93
2022-09-29T06:43:57.733Z,19.70
2022-09-29T06:46:29.616Z,22.50
2022-09-29T06:49:00.440Z,39.47
2022-09-29T06:51:42.681Z,64.47
2022-09-29T06:54:20.899Z,79.40
2022-09-29T06:56:52.006Z,70.00
2022-09-29T06:59:22.447Z,60.17
2022-09-29T07:01:52.843Z,22.40
2022-09-29T07:04:24.146Z,15.53
2022-09-29T07:06:54.555Z,17.00
2022-09-29T07:09:27.113Z,15.67
2022-09-29T07:11:57.074Z,15.00
2022-09-29T07:14:28.413Z,14.23
2022-09-29T07:16:59.247Z,9.83
2022-09-29T07:19:29.987Z,12.90
2022-09-29T07:22:00.101Z,12.70
2022-09-29T07:24:33.290Z,12.03
2022-09-29T07:27:03.241Z,10.77
2022-09-29T07:29:36.105Z,10.33
2022-09-29T07:32:10.530Z,9.60
2022-09-29T07:34:46.316Z,9.80
2022-09-29T07:37:16.202Z,9.60
2022-09-29T07:39:48.775Z,8.57
2022-09-29T07:42:18.672Z,8.77
2022-09-29T07:44:58.118Z,8.50
2022-09-29T07:47:28.061Z,8.17
2022-09-29T07:49:58.210Z,9.00
2022-09-29T07:52:28.267Z,8.60
2022-09-29T07:55:00.745Z,8.40
2022-09-29T07:57:30.694Z,8.17
2022-09-29T08:00:00.738Z,8.40
2022-09-29T08:02:30.677Z,7.47
2022-09-29T08:05:05.451Z,8.23
2022-09-29T08:07:38.005Z,7.10
2022-09-29T08:10:17.476Z,7.00
2022-09-29T08:12:47.805Z,6.20
2022-09-29T08:15:17.795Z,6.97
2022-09-29T08:17:47.833Z,6.07
2022-09-29T08:20:17.827Z,5.80
2022-09-29T08:22:48.318Z,5.50
2022-09-29T08:25:21.270Z,5.47
2022-09-29T08:27:55.559Z,5.20
2022-09-29T08:30:25.812Z,4.77
2022-09-29T08:32:56.923Z,5.57
2022-09-29T08:35:27.112Z,4.70
2022-09-29T08:37:59.172Z,4.30
2022-09-29T08:40:34.673Z,4.67
2022-09-29T08:43:16.669Z,5.30
2022-09-29T08:46:00.330Z,4.67
2022-09-29T08:48:37.187Z,4.20
2022-09-29T08:51:15.153Z,5.40
2022-09-29T08:54:01.403Z,5.00
2022-09-29T08:56:37.187Z,4.67
2022-09-29T08:59:07.488Z,5.70
2022-09-29T09:01:50.706Z,5.50
2022-09-29T09:04:38.854Z,4.67
2022-09-29T09:07:17.723Z,4.37
2022-09-29T09:10:10.390Z,4.90
2022-09-29T09:13:18.892Z,4.90
2022-09-29T09:16:03.753Z,4.70
2022-09-29T09:19:05.204Z,5.80
2022-09-29T09:21:43.689Z,5.63
2022-09-29T09:24:24.518Z,5.07
2022-09-29T09:26:55.164Z,5.30
2022-09-29T09:29:36.699Z,5.03
2022-09-29T09:32:11.170Z,4.37
2022-09-29T09:34:46.055Z,3.90
2022-09-29T09:37:21.909Z,4.60
2022-09-29T09:39:59.578Z,4.60
2022-09-29T09:42:34.186Z,4.40
2022-09-29T09:45:15.357Z,4.13
2022-09-29T09:47:49.720Z,4.57
2022-09-29T09:50:21.739Z,4.17
2022-09-29T09:52:56.033Z,4.77
2022-09-29T09:55:28.184Z,4.10
2022-09-29T09:58:14.054Z,5.17
2022-09-29T10:00:50.457Z,4.67
2022-09-29T10:03:21.200Z,4.43
2022-09-29T10:05:52.390Z,4.30
2022-09-29T10:08:27.836Z,4.40
2022-09-29T10:10:59.810Z,4.40
2022-09-29T10:13:31.689Z,4.57
2022-09-29T10:16:14.367Z,4.17
2022-09-29T10:18:46.482Z,4.40
2022-09-29T10:21:24.491Z,5.20
2022-09-29T10:23:56.125Z,3.83
2022-09-29T10:26:28.780Z,3.70
2022-09-29T10:29:01.775Z,3.23
2022-09-29T10:31:37.130Z,3.30
2022-09-29T10:34:19.628Z,3.37
2022-09-29T10:36:56.353Z,3.27
2022-09-29T10:39:43.618Z,3.20
2022-09-29T10:42:26.260Z,2.77
2022-09-29T10:44:58.225Z,2.43
2022-09-29T10:47:30.786Z,2.07
2022-09-29T10:50:15.252Z,1.70
2022-09-29T10:52:47.024Z,1.73
2022-09-29T10:55:22.690Z,1.70
2022-09-29T10:57:54.157Z,1.80
2022-09-29T11:00:32.472Z,2.17
2022-09-29T11:03:10.357Z,2.50
2022-09-29T11:05:41.466Z,2.67
2022-09-29T11:08:15.845Z,2.50
2022-09-29T11:10:46.293Z,2.70
2022-09-29T11:13:38.820Z,2.90
2022-09-29T11:16:17.217Z,2.63
2022-09-29T11:18:53.497Z,2.70
2022-09-29T11:21:44.160Z,2.27
2022-09-29T11:24:25.693Z,2.57
2022-09-29T11:27:02.375Z,2.70
2022-09-29T11:29:40.431Z,2.00
2022-09-29T11:32:24.034Z,2.10
2022-09-29T11:35:14.532Z,1.70
2022-09-29T11:38:00.172Z,2.43
2022-09-29T11:40:36.193Z,1.67
2022-09-29T11:43:18.378Z,2.33
2022-09-29T11:45:56.630Z,2.27
2022-09-29T11:48:43.048Z,2.00
2022-09-29T11:51:24.399Z,2.47
2022-09-29T11:54:20.098Z,2.20
2022-09-29T11:56:56.337Z,1.80
2022-09-29T12:00:01.400Z,2.00
2022-09-29T12:03:06.203Z,1.97
2022-09-29T12:05:51.889Z,1.50
2022-09-29T12:08:34.960Z,1.07
2022-09-29T12:11:30.057Z,1.70
2022-09-29T12:14:07.147Z,1.70
2022-09-29T12:16:41.176Z,1.80
2022-09-29T12:19:16.622Z,1.60
2022-09-29T12:21:50.508Z,1.50
2022-09-29T12:24:28.510Z,1.50
2022-09-29T12:26:59.969Z,2.17
2022-09-29T12:29:36.690Z,2.27
2022-09-29T12:32:18.978Z,2.00
2022-09-29T12:34:54.707Z,1.47
2022-09-29T12:37:28.584Z,1.20
2022-09-29T12:40:08.191Z,1.20
2022-09-29T12:42:58.795Z,1.30
2022-09-29T12:45:35.663Z,1.40
2022-09-29T12:48:18.105Z,1.30
2022-09-29T12:50:53.766Z,1.30
2022-09-29T12:53:28.403Z,1.60
2022-09-29T12:56:05.662Z,1.30
2022-09-29T12:58:42.649Z,1.30
2022-09-29T13:01:28.137Z,1.27
2022-09-29T13:04:37.716Z,1.23
2022-09-29T13:07:42.414Z,1.33
2022-09-29T13:10:31.850Z,1.17
2022-09-29T13:13:23.009Z,1.70
2022-09-29T13:16:07.309Z,1.47
2022-09-29T13:19:20.701Z,1.10
2022-09-29T13:22:07.211Z,1.20
2022-09-29T13:24:52.515Z,1.63
2022-09-29T13:27:31.539Z,1.80
2022-09-29T13:30:08.552Z,1.47
2022-09-29T13:32:43.896Z,1.50
2022-09-29T13:35:19.946Z,1.67
2022-09-29T13:37:53.257Z,1.30
2022-09-29T13:40:27.214Z,1.10
2022-09-29T13:42:59.358Z,1.53
2022-09-29T13:45:47.447Z,1.50
2022-09-29T13:48:47.521Z,2.10
2022-09-29T13:51:53.084Z,1.47
2022-09-29T13:54:30.969Z,1.50
2022-09-29T13:57:27.447Z,1.63
2022-09-29T14:00:22.203Z,1.50
2022-09-29T14:03:35.268Z,1.60
2022-09-29T14:09:10.986Z,2.50
2022-09-29T14:11:45.699Z,2.17
2022-09-29T14:14:21.730Z,2.30
2022-09-29T14:16:58.434Z,2.50
2022-09-29T14:19:55.543Z,2.23
2022-09-29T14:22:55.484Z,1.83
2022-09-29T14:26:00.250Z,2.00
2022-09-29T14:28:43.532Z,1.87
2022-09-29T14:31:26.402Z,1.70
2022-09-29T14:33:56.829Z,1.80
2022-09-29T14:36:31.055Z,1.80
2022-09-29T14:39:25.687Z,1.53
2022-09-29T14:41:52.591Z,1.70
2022-09-29T14:44:27.665Z,1.30
2022-09-29T14:47:45.626Z,1.70
2022-09-29T14:50:59.370Z,1.57
2022-09-29T14:53:57.777Z,1.97
2022-09-29T14:56:42.296Z,1.27
2022-09-29T14:59:27.301Z,1.83
2022-09-29T15:02:22.531Z,1.70
2022-09-29T15:04:53.480Z,2.00
2022-09-29T15:07:27.030Z,1.83
2022-09-29T15:10:02.825Z,1.67
2022-09-29T15:12:35.447Z,2.00
2022-09-29T15:15:06.451Z,2.10
2022-09-29T15:17:55.054Z,1.50
2022-09-29T15:20:29.908Z,1.57
2022-09-29T15:23:31.678Z,1.53
2022-09-29T15:26:05.172Z,1.90
2022-09-29T15:28:38.847Z,1.47
2022-09-29T15:31:11.781Z,1.43
2022-09-29T15:33:45.533Z,1.10
2022-09-29T15:36:23.183Z,1.80
2022-09-29T15:38:56.130Z,1.90
2022-09-29T15:41:30.639Z,2.13
2022-09-29T15:44:03.266Z,1.90
2022-09-29T15:46:41.488Z,1.77
2022-09-29T15:49:21.561Z,2.07
2022-09-29T15:52:00.290Z,1.97
2022-09-29T15:54:35.049Z,1.70
2022-09-29T15:57:21.024Z,1.77
2022-09-29T15:59:54.539Z,1.93
2022-09-29T16:02:29.671Z,1.60
2022-09-29T16:05:04.894Z,1.83
2022-09-29T16:07:38.385Z,1.50
2022-09-29T16:10:16.598Z,2.30
2022-09-29T16:12:56.481Z,1.87
2022-09-29T16:15:32.660Z,2.27
2022-09-29T16:18:05.281Z,2.93
2022-09-29T16:20:38.447Z,2.23
2022-09-29T16:23:18.564Z,2.27
2022-09-29T16:25:49.453Z,2.33
2022-09-29T16:28:31.295Z,2.27
2022-09-29T16:31:07.833Z,1.60
2022-09-29T16:33:38.799Z,1.80
2022-09-29T16:36:13.980Z,1.57
2022-09-29T16:38:48.358Z,1.93
2022-09-29T16:41:34.547Z,1.60
2022-09-29T16:44:17.909Z,1.23
2022-09-29T16:46:51.340Z,1.43
2022-09-29T16:49:26.342Z,1.60
2022-09-29T16:51:58.687Z,1.50
2022-09-29T16:54:32.316Z,1.10
2022-09-29T16:57:25.461Z,1.60
2022-09-29T17:00:00.248Z,1.70
2022-09-29T17:02:31.256Z,1.73
2022-09-29T17:05:05.327Z,2.10
2022-09-29T17:07:41.166Z,1.73
2022-09-29T17:10:20.085Z,1.80
2022-09-29T17:12:50.347Z,1.57
2022-09-29T17:15:23.629Z,1.50
2022-09-29T17:17:54.528Z,1.73
2022-09-29T17:20:30.504Z,1.57
2022-09-29T17:23:02.038Z,1.63
2022-09-29T17:25:32.846Z,1.60
2022-09-29T17:28:12.597Z,1.63
2022-09-29T17:30:47.283Z,2.70
2022-09-29T17:33:18.818Z,1.50
2022-09-29T17:35:55.155Z,1.57
2022-09-29T17:38:27.231Z,1.83
2022-09-29T17:41:02.635Z,1.77
2022-09-29T17:43:33.753Z,1.97
2022-09-29T17:46:06.679Z,2.17
2022-09-29T17:48:36.605Z,1.77
2022-09-29T17:51:07.161Z,2.20
2022-09-29T17:53:37.051Z,2.00
2022-09-29T17:56:08.303Z,1.90
2022-09-29T17:58:38.195Z,2.27
2022-09-29T18:01:11.682Z,2.20
2022-09-29T18:03:42.349Z,2.20
2022-09-29T18:06:21.372Z,2.33
2022-09-29T18:08:54.014Z,1.70
2022-09-29T18:11:25.631Z,1.30
2022-09-29T18:13:56.048Z,2.10
2022-09-29T18:16:29.313Z,1.70
2022-09-29T18:18:59.271Z,1.93
2022-09-29T18:21:34.137Z,2.17
2022-09-29T18:24:05.351Z,1.40
2022-09-29T18:26:35.220Z,1.60
2022-09-29T18:29:11.460Z,1.87
2022-09-29T18:31:44.060Z,2.43
2022-09-29T18:34:18.647Z,2.93
2022-09-29T18:36:48.992Z,2.77
2022-09-29T18:39:19.411Z,3.13
2022-09-29T18:41:49.258Z,2.93
2022-09-29T18:44:23.381Z,2.80
2022-09-29T18:46:55.985Z,3.23
2022-09-29T18:49:26.751Z,3.13
2022-09-29T18:51:56.665Z,3.73
2022-09-29T18:54:26.514Z,3.13
2022-09-29T18:56:56.430Z,2.63
2022-09-29T18:59:26.657Z,3.17
2022-09-29T19:01:59.245Z,2.90
2022-09-29T19:04:30.675Z,2.40
2022-09-29T19:07:00.548Z,2.93
2022-09-29T19:09:30.822Z,2.67
2022-09-29T19:12:00.777Z,2.23
2022-09-29T19:14:34.463Z,3.33
2022-09-29T19:17:07.411Z,2.40
2022-09-29T19:19:37.984Z,2.93
2022-09-29T19:22:12.417Z,3.60
2022-09-29T19:24:42.385Z,2.80
2022-09-29T19:27:12.313Z,2.60
2022-09-29T19:29:42.570Z,2.73
2022-09-29T19:32:15.322Z,2.83
2022-09-29T19:34:45.876Z,3.10
2022-09-29T19:37:15.793Z,3.03
2022-09-29T19:39:47.025Z,2.27
2022-09-29T19:42:16.989Z,2.87
2022-09-29T19:44:48.744Z,2.40
2022-09-29T19:47:21.272Z,2.40
2022-09-29T19:50:11.284Z,2.93
2022-09-29T19:52:38.599Z,3.20
2022-09-29T19:55:13.089Z,4.20
2022-09-29T19:57:43.287Z,4.53
2022-09-29T20:00:16.614Z,2.70
2022-09-29T20:02:49.145Z,2.80
2022-09-29T20:05:19.637Z,3.57
2022-09-29T20:07:49.969Z,3.40
2022-09-29T20:10:22.259Z,3.43
2022-09-29T20:12:52.424Z,3.40
2022-09-29T20:15:22.685Z,3.40
2022-09-29T20:17:55.357Z,3.07
2022-09-29T20:20:25.950Z,3.07
2022-09-29T20:22:56.171Z,3.33
2022-09-29T20:25:26.994Z,3.47
2022-09-29T20:27:59.092Z,5.07
2022-09-29T20:30:30.149Z,4.40
2022-09-29T20:33:02.604Z,5.17
2022-09-29T20:35:32.467Z,4.70
2022-09-29T20:38:03.596Z,5.67
2022-09-29T20:40:33.876Z,3.77
2022-09-29T20:43:03.858Z,4.03
2022-09-29T20:45:33.948Z,3.07
2022-09-29T20:48:06.863Z,3.67
2022-09-29T20:50:37.089Z,3.93
2022-09-29T20:53:07.135Z,3.70
2022-09-29T20:55:37.340Z,3.80
2022-09-29T20:58:07.392Z,3.80
2022-09-29T21:00:37.930Z,4.10
2022-09-29T21:03:10.384Z,3.53
2022-09-29T21:05:43.887Z,3.43
2022-09-29T21:08:13.968Z,3.77
2022-09-29T21:10:45.172Z,4.10
2022-09-29T21:13:15.268Z,4.07
2022-09-29T21:15:45.809Z,4.00
2022-09-29T21:18:18.255Z,4.13
2022-09-29T21:20:49.349Z,4.67
2022-09-29T21:23:19.265Z,4.37
2022-09-29T21:25:49.108Z,4.10
2022-09-29T21:28:18.949Z,4.90
2022-09-29T21:30:49.009Z,4.70
2022-09-29T21:33:21.443Z,5.07
2022-09-29T21:35:58.640Z,5.07
2022-09-29T21:38:37.617Z,4.70
2022-09-29T21:41:09.637Z,4.80
2022-09-29T21:43:44.033Z,5.73
2022-09-29T21:46:16.449Z,4.63
2022-09-29T21:48:53.018Z,5.30
2022-09-29T21:51:25.336Z,6.23
2022-09-29T21:53:57.630Z,5.30
2022-09-29T21:56:32.219Z,7.20
2022-09-29T21:59:02.097Z,4.77
2022-09-29T22:01:32.575Z,5.60
2022-09-29T22:04:05.144Z,5.57
2022-09-29T22:06:37.576Z,5.50
2022-09-29T22:09:09.040Z,5.77
2022-09-29T22:11:42.525Z,8.33
2022-09-29T22:14:14.598Z,7.27
2022-09-29T22:16:44.565Z,5.40
2022-09-29T22:19:32.728Z,5.83
2022-09-29T22:22:02.955Z,6.43
2022-09-29T22:24:33.529Z,5.27
2022-09-29T22:27:04.264Z,4.53
2022-09-29T22:29:34.872Z,6.10
2022-09-29T22:32:05.544Z,5.67
2022-09-29T22:34:39.425Z,5.87
2022-09-29T22:37:09.333Z,5.80
2022-09-29T22:39:39.927Z,6.37
2022-09-29T22:42:09.845Z,6.30
2022-09-29T22:44:40.339Z,7.20
2022-09-29T22:47:10.244Z,6.10
2022-09-29T22:49:43.577Z,7.20
2022-09-29T22:52:13.849Z,7.50
2022-09-29T22:54:44.105Z,5.67
2022-09-29T22:57:14.170Z,6.00
2022-09-29T22:59:44.295Z,6.07
2022-09-29T23:02:14.268Z,6.70
2022-09-29T23:04:47.393Z,6.67
2022-09-29T23:07:17.400Z,5.60
2022-09-29T23:09:47.771Z,4.90
2022-09-29T23:12:18.181Z,7.83
2022-09-29T23:14:49.785Z,7.00
2022-09-29T23:17:20.038Z,6.87
2022-09-29T23:19:53.635Z,7.63
2022-09-29T23:22:23.546Z,7.60
2022-09-29T23:24:54.159Z,7.60
2022-09-29T23:27:24.029Z,8.67
2022-09-29T23:29:54.616Z,7.67
2022-09-29T23:32:24.582Z,8.30
2022-09-29T23:34:57.861Z,8.87
2022-09-29T23:37:47.970Z,10.30
2022-09-29T23:40:16.600Z,14.00
2022-09-29T23:42:46.513Z,15.27
2022-09-29T23:45:17.090Z,8.77
2022-09-29T23:47:47.575Z,7.60
2022-09-29T23:50:20.262Z,6.20
2022-09-29T23:52:50.252Z,6.23
2022-09-29T23:55:21.174Z,6.70
2022-09-29T23:57:51.518Z,7.07
